Latest Coastal Weather Observations for Learmonth

IDW60701

Issued at 7:53 pm WST Saturday 27 August 2016 (issued every 10 minutes, with the page automatically refreshed every 10 minutes)

About coastal observations | Map of coastal stations | Coastal observations for WA | Marine services | Other Formats
Station Details ID: 005007 Name: LEARMONTH AIRPORT Lat: -22.24 Lon: 114.10 Height: 5.0 m
Data from the previous 72 hours. | See also: Recent months at Learmonth
Date/Time
WST
Temp
°C
Wind Pressure Rain since
9am
mm
Weather Cloud Vis
km
Sea
Height
m
Swell
Dir  Spd
kts
Gust
kts
hPa Trend Height
m
Period
s
Dir
27/07:30pm 19.6 SSW 8 12 1013.0 - 0.0 - - 10 - - - -
27/07:00pm 20.4 SSW 10 14 1012.4 - 0.0 - - 10 - - - -
27/06:30pm 21.4 SSW 12 17 1012.1 - 0.0 - Partly cloudy 10 - - - -
27/06:00pm 22.7 W 12 17 1011.8 - 0.0 - Mostly clear 10 - - - -
27/05:30pm 23.6 W 13 19 1011.7 - 0.0 - Partly cloudy 10 - - - -
27/05:00pm 23.3 WSW 15 22 1011.6 - 0.0 - Partly cloudy 10 - - - -
27/04:30pm 25.3 W 12 15 1011.3 - 0.0 - Partly cloudy 10 - - - -
27/04:00pm 24.6 NW 11 13 1011.2 - 0.0 - Partly cloudy 10 - - - -
27/03:30pm 24.0 W 12 16 1011.3 - 0.0 - Partly cloudy 10 - - - -
27/03:00pm 24.2 WNW 12 16 1011.3 - 0.0 - Cloudy 10 - - - -
27/02:30pm 24.3 W 14 19 1011.5 - 0.0 - Partly cloudy 10 - - - -
27/02:11pm 22.4 WNW 12 19 1011.8 - 0.0 - Partly cloudy 10 - - - -
27/02:00pm 21.8 WNW 14 19 1012.1 - 0.0 - Partly cloudy 8 - - - -
27/01:55pm 21.4 W 15 19 1012.2 - 0.0 - Partly cloudy 8 - - - -
27/01:53pm 21.9 W 15 19 1012.2 - 0.0 - Partly cloudy 10 - - - -
27/01:37pm 21.9 WSW 23 26 1012.1 - 0.0 - Partly cloudy 10 - - - -
27/01:31pm 25.6 W 17 29 1012.1 - 0.0 - Partly cloudy 10 - - - -
27/01:30pm 25.7 W 15 21 1012.0 - 0.0 - Partly cloudy 10 - - - -
27/01:00pm 26.4 NW 15 20 1012.1 - 0.0 - Partly cloudy 10 - - - -
27/12:30pm 27.0 NW 16 23 1012.3 - 0.0 - Partly cloudy 10 - - - -
27/12:00pm 27.3 NW 12 17 1012.6 - 0.0 - Cloudy 10 - - - -
27/11:30am 28.3 NW 15 20 1013.0 - 0.0 - Partly cloudy 10 - - - -
27/11:00am 28.1 NNW 14 18 1013.2 - 0.0 - Partly cloudy 10 - - - -
27/10:30am 27.0 NNW 14 19 1013.4 - 0.0 - Partly cloudy 10 - - - -
27/10:00am 25.3 NNE 11 16 1013.7 - 0.0 - Partly cloudy 10 - - - -
27/09:30am 25.0 N 12 15 1013.8 - 0.0 - Partly cloudy 10 - - - -
27/09:00am 24.2 N 10 12 1013.5 - 0.0 - - 10 - - - -
27/08:30am 23.1 N 11 14 1013.6 - 0.0 - - 10 - - - -
27/08:00am 21.7 N 10 14 1013.4 - 0.0 - - 10 - - - -
27/07:30am 20.8 N 9 12 1013.0 - 0.0 - - 10 - - - -
27/07:00am 18.5 N 9 10 1013.2 - 0.0 - - 10 - - - -
27/06:30am 17.4 N 7 8 1012.9 - 0.0 - Partly cloudy 10 - - - -
27/06:00am 17.5 NNW 6 7 1012.7 - 0.0 - Partly cloudy 10 - - - -
27/05:30am 17.9 NNW 7 8 1012.6 - 0.0 - Partly cloudy 10 - - - -
27/05:00am 18.0 NNW 7 8 1012.5 - 0.0 - Partly cloudy 10 - - - -
27/04:30am 17.1 N 7 8 1012.5 - 0.0 - Partly cloudy 10 - - - -
27/04:00am 17.3 N 7 8 1012.5 - 0.0 - Partly cloudy 10 - - - -
27/03:30am 17.2 N 8 9 1012.5 - 0.0 - Partly cloudy 10 - - - -
27/03:00am 16.8 N 9 9 1012.6 - 0.0 - Mostly cloudy 10 - - - -
27/02:30am 16.7 NNW 5 7 1012.9 - 0.0 - Partly cloudy 10 - - - -
27/02:00am 15.9 N 5 5 1013.1 - 0.0 - Partly cloudy 10 - - - -
27/01:30am 15.4 NNW 2 3 1013.3 - 0.0 - Partly cloudy 10 - - - -
27/01:00am 15.9 CALM 0 2 1013.5 - 0.0 - - 10 - - - -
27/12:30am 16.6 NNW 5 6 1013.4 - 0.0 - - 10 - - - -
27/12:00am 15.8 N 6 7 1013.5 - 0.0 - - 10 - - - -
 
Date/Time
WST
Temp
°C
Wind Pressure Rain since
9am
mm
Weather Cloud Vis
km
Sea
Height
m
Swell
Dir  Spd
kts
Gust
kts
hPa Trend Height
m
Period
s
Dir
26/11:30pm 15.3 N 7 9 1013.8 - 0.0 - - 10 - - - -
26/11:00pm 16.5 N 6 7 1013.9 - 0.0 - - 10 - - - -
26/10:30pm 15.7 N 7 9 1014.1 - 0.0 - - 10 - - - -
26/10:00pm 15.8 N 6 7 1014.0 - 0.0 - - 10 - - - -
26/09:30pm 15.9 N 6 7 1014.0 - 0.0 - - 10 - - - -
26/09:00pm 16.2 N 6 8 1014.3 - 0.0 - - 10 - - - -
26/08:30pm 15.6 N 9 10 1014.3 - 0.0 - - 10 - - - -
26/08:00pm 16.0 NNW 7 8 1014.7 - 0.0 - - 10 - - - -
26/07:30pm 16.0 N 8 9 1014.6 - 0.0 - - 10 - - - -
26/07:00pm 16.9 N 7 8 1014.4 - 0.0 - - 10 - - - -
26/06:30pm 19.3 N 5 6 1014.5 - 0.0 - - 10 - - - -
26/06:00pm 20.3 N 6 7 1014.3 - 0.0 - - 10 - - - -
26/05:30pm 21.8 NNE 7 9 1014.3 - 0.0 - - 10 - - - -
26/05:00pm 22.1 NE 8 10 1014.2 - 0.0 - - 10 - - - -
26/04:30pm 23.2 NE 8 10 1013.9 - 0.0 - - 10 - - - -
26/04:00pm 23.7 NE 7 11 1013.7 - 0.0 - - 10 - - - -
26/03:30pm 24.0 NNE 8 12 1013.7 - 0.0 - Mostly clear 10 - - - -
26/03:00pm 23.9 NNE 7 10 1013.7 - 0.0 - Mostly clear 10 - - - -
26/02:30pm 24.4 N 8 10 1013.9 - 0.0 - Mostly clear 10 - - - -
26/02:00pm 24.4 NNE 6 9 1014.3 - 0.0 - Mostly clear 10 - - - -
26/01:30pm 23.4 NE 8 10 1014.6 - 0.0 - Mostly clear 10 - - - -
26/01:00pm 24.0 NE 9 11 1014.9 - 0.0 - Mostly clear 10 - - - -
26/12:30pm 23.1 NE 9 11 1015.6 - 0.0 - Mostly clear 10 - - - -
26/12:00pm 22.9 NE 8 10 1016.0 - 0.0 - Mostly clear 10 - - - -
26/11:30am 22.1 NE 8 10 1016.5 - 0.0 - Mostly clear 10 - - - -
26/11:00am 21.2 NE 8 10 1016.8 - 0.0 - Mostly clear 10 - - - -
26/10:30am 21.0 NE 7 11 1017.0 - 0.0 - Mostly clear 10 - - - -
26/10:00am 20.1 NNE 6 8 1017.1 - 0.0 - Mostly clear 10 - - - -
26/09:30am 19.6 ENE 5 8 1017.0 - 0.0 - Mostly clear 10 - - - -
26/09:00am 19.1 NE 6 8 1016.7 - 0.0 - - 10 - - - -
26/08:30am 18.2 NNE 2 5 1016.7 - 0.0 - - 10 - - - -
26/08:00am 15.9 CALM 0 0 1016.4 - 0.0 - Mostly clear 10 - - - -
26/07:30am 12.8 W 2 4 1016.3 - 0.0 - Mostly clear 10 - - - -
26/07:00am 9.5 SW 5 6 1016.2 - 0.0 - - 10 - - - -
26/06:30am 9.2 SW 6 6 1015.8 - 0.0 - - 10 - - - -
26/06:00am 9.1 SSW 6 6 1015.4 - 0.0 - - 10 - - - -
26/05:30am 9.2 SSW 5 6 1015.3 - 0.0 - - 10 - - - -
26/05:00am 9.7 S 5 5 1014.9 - 0.0 - - 10 - - - -
26/04:30am 9.8 CALM 0 0 1014.9 - 0.0 - - 10 - - - -
26/04:00am 11.3 CALM 0 0 1014.8 - 0.0 - - 10 - - - -
26/03:30am 11.9 W 5 6 1014.8 - 0.0 - - 10 - - - -
26/03:00am 11.4 W 3 4 1014.8 - 0.0 - - 10 - - - -
26/02:30am 11.4 W 5 6 1015.2 - 0.0 - - 10 - - - -
26/02:00am 11.2 SW 6 6 1015.6 - 0.0 - - 10 - - - -
26/01:30am 10.6 SW 5 6 1015.9 - 0.0 - - 10 - - - -
26/01:00am 10.3 SSW 6 6 1016.1 - 0.0 - - 10 - - - -
26/12:30am 10.5 SSW 5 6 1016.4 - 0.0 - - 10 - - - -
26/12:00am 11.1 S 7 7 1016.3 - 0.0 - - 10 - - - -
 
Date/Time
WST
Temp
°C
Wind Pressure Rain since
9am
mm
Weather Cloud Vis
km
Sea
Height
m
Swell
Dir  Spd
kts
Gust
kts
hPa Trend Height
m
Period
s
Dir
25/11:30pm 11.4 S 6 6 1016.4 - 0.0 - - 10 - - - -
25/11:00pm 11.8 S 6 7 1016.4 - 0.0 - - 10 - - - -
25/10:30pm 11.6 S 7 8 1016.5 - 0.0 - - 10 - - - -
25/10:00pm 11.1 S 6 7 1016.6 - 0.0 - - 10 - - - -
25/09:30pm 11.8 SSW 5 7 1016.6 - 0.0 - - 10 - - - -
25/09:00pm 13.3 W 3 4 1016.3 - 0.0 - - 10 - - - -
25/08:30pm 14.8 WNW 3 4 1016.2 - 0.0 - - 10 - - - -
25/08:00pm 17.3 NNW 6 7 1016.1 - 0.0 - - 10 - - - -
25/07:30pm 16.5 NNW 8 9 1015.8 - 0.0 - - 10 - - - -
25/07:00pm 17.7 N 8 9 1015.7 - 0.0 - - 10 - - - -
25/06:30pm 19.6 N 9 12 1015.6 - 0.0 - - 10 - - - -
25/06:00pm 20.9 N 11 14 1015.3 - 0.0 - - 10 - - - -
25/05:30pm 21.9 N 13 17 1015.4 - 0.0 - - 10 - - - -
25/05:00pm 22.5 N 13 17 1015.2 - 0.0 - - 10 - - - -
25/04:30pm 23.0 N 14 18 1015.1 - 0.0 - - 10 - - - -
25/04:00pm 23.0 NNE 13 17 1015.1 - 0.0 - - 10 - - - -
25/03:30pm 23.7 NNE 13 18 1015.2 - 0.0 - - 10 - - - -
25/03:00pm 23.4 NNE 14 18 1015.1 - 0.0 - - 10 - - - -
25/02:30pm 23.9 NNE 15 19 1015.2 - 0.0 - - 10 - - - -
25/02:00pm 23.5 NNE 12 15 1015.6 - 0.0 - - 10 - - - -
25/01:30pm 23.1 NNE 12 15 1016.0 - 0.0 - - 10 - - - -
25/01:00pm 22.5 NNE 13 18 1016.5 - 0.0 - - 10 - - - -
25/12:30pm 23.3 N 10 13 1016.7 - 0.0 - - 10 - - - -
25/12:00pm 22.1 NE 7 9 1017.0 - 0.0 - - 10 - - - -
25/11:30am 21.4 ENE 4 9 1017.5 - 0.0 - - 10 - - - -
25/11:00am 21.0 ENE 4 7 1017.7 - 0.0 - - 10 - - - -
25/10:30am 20.2 E 7 9 1018.0 - 0.0 - - 10 - - - -
25/10:00am 20.2 ESE 9 12 1018.3 - 0.0 - - 10 - - - -
25/09:30am 19.8 ESE 6 8 1018.1 - 0.0 - - 10 - - - -
25/09:00am 18.5 SSE 5 7 1017.8 - 0.0 - - 10 - - - -
25/08:30am 16.4 S 6 9 1017.8 - 0.0 - - 10 - - - -
25/08:00am 13.7 SSW 5 7 1017.5 - 0.0 - - 10 - - - -
25/07:30am 9.9 SW 6 7 1017.1 - 0.0 - - 10 - - - -
25/07:00am 7.1 SW 7 8 1016.9 - 0.0 - - 10 - - - -
25/06:30am 6.4 WSW 6 6 1016.5 - 0.0 - - 10 - - - -
25/06:00am 5.9 SW 7 8 1015.9 - 0.0 - - 10 - - - -
25/05:30am 5.9 S 6 9 1015.6 - 0.0 - - 10 - - - -
25/05:00am 6.8 SSW 5 5 1015.2 - 0.0 - - 10 - - - -
25/04:30am 7.3 S 5 6 1015.2 - 0.0 - - 10 - - - -
25/04:00am 8.4 SSW 5 6 1015.0 - 0.0 - - 10 - - - -
25/03:30am 9.1 SSW 6 7 1015.0 - 0.0 - - 10 - - - -
25/03:00am 11.3 WSW 6 7 1014.9 - 0.0 - - 10 - - - -
25/02:30am 10.6 WSW 7 9 1015.2 - 0.0 - - 10 - - - -
25/02:00am 10.2 SW 6 7 1015.3 - 0.0 - - 10 - - - -
25/01:30am 9.6 SW 5 7 1015.4 - 0.0 - - 10 - - - -
25/01:00am 9.3 SW 7 8 1015.7 - 0.0 - - 10 - - - -
25/12:30am 9.7 SW 8 9 1016.0 - 0.0 - - 10 - - - -
25/12:00am 10.0 SSW 6 7 1016.3 - 0.0 - - 10 - - - -
 
Date/Time
WST
Temp
°C
Wind Pressure Rain since
9am
mm
Weather Cloud Vis
km
Sea
Height
m
Swell
Dir  Spd
kts
Gust
kts
hPa Trend Height
m
Period
s
Dir
24/11:30pm 10.8 SW 6 8 1016.5 - 0.0 - - 10 - - - -
24/11:00pm 10.8 SW 7 7 1016.7 - 0.0 - - 10 - - - -
24/10:30pm 12.3 SW 4 6 1016.9 - 0.0 - - 10 - - - -
24/10:00pm 13.8 WSW 5 6 1016.9 - 0.0 - - 10 - - - -
24/09:30pm 12.6 SW 7 9 1017.1 - 0.0 - - 10 - - - -
24/09:00pm 14.1 W 6 7 1017.0 - 0.0 - - 10 - - - -
24/08:30pm 13.9 SW 6 7 1017.1 - 0.0 - - 10 - - - -
24/08:00pm 13.7 S 9 9 1017.0 - 0.0 - - 10 - - - -

Other Formats:

Comma delimited format used in spreadsheet applications
http://www.bom.gov.au/fwo/IDW60701/IDW60701.94302.axf

JavaScript Object Notation format (JSON) in row-major order
http://www.bom.gov.au/fwo/IDW60701/IDW60701.94302.json